Time;durP1;ratioP1;P1;durP2;ratioP2;P2;SDS_P1;SDS_P2;PMS_P1;PMS_P2;Temp;Humidity;BMP_temperature;BMP_pressure;BME280_temperature;BME280_humidity;BME280_pressure;Samples;Min_cycle;Max_cycle;Signal;HPM_P1;HPM_P2
2022/09/27 00:02:18;;;;;;;9.63;5.93;;;;;;;;;;5091640;28;20078;-80
2022/09/27 00:04:44;;;;;;;9.77;6.03;;;;;;;;;;5078999;28;20623;-80
2022/09/27 00:07:10;;;;;;;8.45;5.28;;;;;;;;;;5098137;28;20024;-80
2022/09/27 00:09:36;;;;;;;8.90;5.65;;;;;;;;;;5098381;28;20514;-81
2022/09/27 00:12:04;;;;;;;9.20;5.57;;;;;;;;;;5056733;28;20021;-80
2022/09/27 00:14:30;;;;;;;8.35;5.80;;;;;;;;;;5087730;28;20070;-80
2022/09/27 00:16:56;;;;;;;10.15;6.28;;;;;;;;;;5092117;28;20027;-80
2022/09/27 00:19:22;;;;;;;9.20;6.10;;;;;;;;;;5094703;28;20059;-80
2022/09/27 00:21:49;;;;;;;9.40;6.38;;;;;;;;;;5048638;28;1164651;-80
2022/09/27 00:24:17;;;;;;;10.05;6.03;;;;;;;;;;5094378;28;20377;-80
2022/09/27 00:26:43;;;;;;;10.10;6.30;;;;;;;;;;5094592;28;20103;-80
2022/09/27 00:29:09;;;;;;;9.98;6.20;;;;;;;;;;5076531;28;20047;-80
2022/09/27 00:31:36;;;;;;;9.05;5.90;;;;;;;;;;5086042;28;20021;-80
2022/09/27 00:34:03;;;;;;;9.63;6.35;;;;;;;;;;5073619;28;20020;-81
2022/09/27 00:36:30;;;;;;;9.35;6.07;;;;;;;;;;5093649;28;20024;-81
2022/09/27 00:39:00;;;;;;;9.05;5.53;;;;;;;;;;5085295;28;20012;-81
2022/09/27 00:41:34;;;;;;;8.95;5.82;;;;;;;;;;5094996;28;20112;-81
2022/09/27 00:44:04;;;;;;;8.88;5.55;;;;;;;;;;5096455;28;20028;-81
2022/09/27 00:46:36;;;;;;;10.18;6.25;;;;;;;;;;5096519;28;20016;-81
2022/09/27 00:49:05;;;;;;;8.95;6.10;;;;;;;;;;5098337;28;20031;-81
2022/09/27 00:51:32;;;;;;;9.70;6.22;;;;;;;;;;5082759;28;20021;-81
2022/09/27 00:53:58;;;;;;;10.38;6.15;;;;;;;;;;5087142;28;20570;-81
2022/09/27 00:56:26;;;;;;;9.73;7.00;;;;;;;;;;5096781;28;20507;-80
2022/09/27 00:58:58;;;;;;;9.88;6.15;;;;;;;;;;5102914;28;20107;-80
2022/09/27 01:01:24;;;;;;;10.32;6.55;;;;;;;;;;5107583;28;20039;-79
2022/09/27 01:03:50;;;;;;;9.18;5.97;;;;;;;;;;5097368;28;20441;-80
2022/09/27 01:06:18;;;;;;;9.82;6.30;;;;;;;;;;5090832;28;20027;-80
2022/09/27 01:08:44;;;;;;;12.48;7.03;;;;;;;;;;5092409;28;20051;-80
2022/09/27 01:11:27;;;;;;;10.05;6.13;;;;;;;;;;5093682;28;20480;-80
2022/09/27 01:14:08;;;;;;;11.65;6.53;;;;;;;;;;5093742;28;20039;-80
2022/09/27 01:16:53;;;;;;;10.70;6.95;;;;;;;;;;5092614;28;20039;-80
2022/09/27 01:19:31;;;;;;;11.02;7.32;;;;;;;;;;5087240;28;20043;-80
2022/09/27 01:22:20;;;;;;;9.80;6.22;;;;;;;;;;5091257;28;20562;-80
2022/09/27 01:24:53;;;;;;;9.13;6.40;;;;;;;;;;5082938;28;20418;-80
2022/09/27 01:27:18;;;;;;;;;;;;;;;;;;5095598;28;20024;-80
2022/09/27 01:29:45;;;;;;;12.25;6.28;;;;;;;;;;5096757;28;19919;-80
2022/09/27 01:32:40;;;;;;;11.90;7.07;;;;;;;;;;5092990;28;20379;-81
2022/09/27 01:35:15;;;;;;;10.73;6.82;;;;;;;;;;5072492;28;20108;-80
2022/09/27 01:37:50;;;;;;;11.15;7.18;;;;;;;;;;5098915;28;20032;-80
2022/09/27 01:40:16;;;;;;;11.27;7.47;;;;;;;;;;5100847;28;20028;-80
2022/09/27 01:42:45;;;;;;;11.60;6.95;;;;;;;;;;5100902;28;20023;-80
2022/09/27 01:45:11;;;;;;;11.75;6.53;;;;;;;;;;5100257;28;20027;-80
2022/09/27 01:47:45;;;;;;;11.75;7.00;;;;;;;;;;5097756;28;20107;-80
2022/09/27 01:50:14;;;;;;;11.73;7.00;;;;;;;;;;5099712;28;20013;-81
2022/09/27 01:52:47;;;;;;;12.40;7.57;;;;;;;;;;5098366;28;20028;-81
2022/09/27 01:55:15;;;;;;;10.07;6.22;;;;;;;;;;5098117;28;20031;-81
2022/09/27 01:57:43;;;;;;;9.90;6.30;;;;;;;;;;5096436;28;20028;-80
2022/09/27 02:00:10;;;;;;;11.00;7.50;;;;;;;;;;5098023;28;20396;-80
2022/09/27 02:02:42;;;;;;;10.02;7.18;;;;;;;;;;5097272;28;20028;-81
2022/09/27 02:05:10;;;;;;;11.13;6.95;;;;;;;;;;5097863;28;20239;-80
2022/09/27 02:07:52;;;;;;;11.95;7.10;;;;;;;;;;5095079;28;20173;-80
2022/09/27 02:10:21;;;;;;;12.18;7.20;;;;;;;;;;5100376;28;20024;-81
2022/09/27 02:13:06;;;;;;;11.85;7.45;;;;;;;;;;5098860;28;20024;-81
2022/09/27 02:15:38;;;;;;;11.02;7.15;;;;;;;;;;5099966;28;20039;-81
2022/09/27 02:18:10;;;;;;;12.93;7.85;;;;;;;;;;5095931;28;20038;-80
2022/09/27 02:20:36;;;;;;;11.43;6.95;;;;;;;;;;5094543;28;20103;-80
2022/09/27 02:23:17;;;;;;;10.93;7.53;;;;;;;;;;5095367;28;20082;-81
2022/09/27 02:25:54;;;;;;;12.68;8.30;;;;;;;;;;5095847;28;20103;-80
2022/09/27 02:28:20;;;;;;;11.82;7.80;;;;;;;;;;5075324;28;20047;-81
2022/09/27 02:30:46;;;;;;;12.07;7.78;;;;;;;;;;5092380;28;20474;-81
2022/09/27 02:33:12;;;;;;;11.20;7.93;;;;;;;;;;5094722;28;20048;-80
2022/09/27 02:35:38;;;;;;;12.10;8.00;;;;;;;;;;5081960;28;20029;-81
2022/09/27 02:38:06;;;;;;;11.65;7.75;;;;;;;;;;5086871;28;20086;-81
2022/09/27 02:40:34;;;;;;;12.30;7.30;;;;;;;;;;5098851;28;20020;-81
2022/09/27 02:43:01;;;;;;;14.75;8.48;;;;;;;;;;5077401;28;20052;-80
2022/09/27 02:45:31;;;;;;;13.18;7.82;;;;;;;;;;5097029;28;20028;-81
2022/09/27 02:47:57;;;;;;;10.65;7.32;;;;;;;;;;5087239;28;20031;-81
2022/09/27 02:50:32;;;;;;;12.07;7.68;;;;;;;;;;5097452;28;20024;-81
2022/09/27 02:53:25;;;;;;;12.60;7.75;;;;;;;;;;5097365;28;20016;-81
2022/09/27 02:56:14;;;;;;;11.68;7.40;;;;;;;;;;5093848;28;20043;-81
2022/09/27 02:58:55;;;;;;;11.43;7.10;;;;;;;;;;5057203;28;20100;-81
2022/09/27 03:01:33;;;;;;;10.25;7.10;;;;;;;;;;5073862;28;20028;-81
2022/09/27 03:03:59;;;;;;;11.65;7.00;;;;;;;;;;5091612;28;20024;-81
2022/09/27 03:06:25;;;;;;;14.45;8.52;;;;;;;;;;5097358;28;20036;-81
2022/09/27 03:08:52;;;;;;;10.75;7.03;;;;;;;;;;5095570;28;20036;-81
2022/09/27 03:11:18;;;;;;;11.52;7.47;;;;;;;;;;5096236;28;20160;-80
2022/09/27 03:13:44;;;;;;;15.63;10.55;;;;;;;;;;5097396;28;20051;-80
2022/09/27 03:16:10;;;;;;;11.88;7.88;;;;;;;;;;5098717;28;20020;-81
2022/09/27 03:18:37;;;;;;;9.30;6.45;;;;;;;;;;5098274;28;20108;-81
2022/09/27 03:21:03;;;;;;;11.57;7.40;;;;;;;;;;5098766;28;20028;-81
2022/09/27 03:23:29;;;;;;;12.05;8.25;;;;;;;;;;5093797;28;20048;-81
2022/09/27 03:25:55;;;;;;;10.40;7.20;;;;;;;;;;5099895;28;20031;-81
2022/09/27 03:28:21;;;;;;;11.90;7.50;;;;;;;;;;5094391;28;20028;-81
2022/09/27 03:30:48;;;;;;;12.10;7.30;;;;;;;;;;5090903;28;20028;-81
2022/09/27 03:33:14;;;;;;;11.85;7.35;;;;;;;;;;5098339;28;20038;-81
2022/09/27 03:35:42;;;;;;;11.90;7.50;;;;;;;;;;5093260;28;20480;-81
2022/09/27 03:38:08;;;;;;;11.90;7.38;;;;;;;;;;5087324;28;20498;-81
2022/09/27 03:40:35;;;;;;;10.55;7.45;;;;;;;;;;5098199;28;20374;-81
2022/09/27 03:43:01;;;;;;;11.38;7.55;;;;;;;;;;5096450;28;20042;-81
2022/09/27 03:45:27;;;;;;;12.27;7.75;;;;;;;;;;5095898;28;20028;-81
2022/09/27 03:47:53;;;;;;;10.13;6.75;;;;;;;;;;5089671;28;20016;-80
2022/09/27 03:50:20;;;;;;;12.70;8.45;;;;;;;;;;5065159;28;20056;-80
2022/09/27 03:52:46;;;;;;;11.75;7.88;;;;;;;;;;5085881;28;20024;-80
2022/09/27 03:55:13;;;;;;;11.10;6.88;;;;;;;;;;5074895;28;20029;-80
2022/09/27 03:57:39;;;;;;;11.15;7.20;;;;;;;;;;5084088;28;20039;-80
2022/09/27 04:00:05;;;;;;;11.00;7.03;;;;;;;;;;5071972;28;20108;-81
2022/09/27 04:02:31;;;;;;;12.50;7.32;;;;;;;;;;5098200;28;20568;-80
2022/09/27 04:04:58;;;;;;;10.57;6.78;;;;;;;;;;5099002;28;20020;-80
2022/09/27 04:07:24;;;;;;;11.57;7.22;;;;;;;;;;5116764;28;20056;-79
2022/09/27 04:09:50;;;;;;;11.75;7.75;;;;;;;;;;5100390;28;20050;-80
2022/09/27 04:12:16;;;;;;;12.75;7.03;;;;;;;;;;5091900;28;20059;-80
2022/09/27 04:14:44;;;;;;;11.82;7.10;;;;;;;;;;5080079;28;20039;-80
2022/09/27 04:17:10;;;;;;;12.05;7.32;;;;;;;;;;5102097;28;20028;-80
2022/09/27 04:19:36;;;;;;;11.63;7.38;;;;;;;;;;5099047;28;20032;-81
2022/09/27 04:22:03;;;;;;;10.70;6.90;;;;;;;;;;5094087;28;20059;-81
2022/09/27 04:24:31;;;;;;;10.48;6.95;;;;;;;;;;5102184;28;20090;-81
2022/09/27 04:26:57;;;;;;;12.00;7.45;;;;;;;;;;5069519;28;20070;-81
2022/09/27 04:29:24;;;;;;;11.73;7.03;;;;;;;;;;5089377;28;20488;-81
2022/09/27 04:31:50;;;;;;;11.95;7.47;;;;;;;;;;5089048;28;20028;-81
2022/09/27 04:34:16;;;;;;;11.20;7.53;;;;;;;;;;5072102;28;20028;-82
2022/09/27 04:36:42;;;;;;;11.40;7.50;;;;;;;;;;5092284;28;20028;-81
2022/09/27 04:39:09;;;;;;;11.23;7.05;;;;;;;;;;5072507;28;20029;-82
2022/09/27 04:41:35;;;;;;;11.75;7.43;;;;;;;;;;5092116;28;20122;-81
2022/09/27 04:44:01;;;;;;;11.18;7.03;;;;;;;;;;5087194;28;20020;-81
2022/09/27 04:46:31;;;;;;;10.93;7.68;;;;;;;;;;5095612;28;20113;-81
2022/09/27 04:48:58;;;;;;;12.27;7.28;;;;;;;;;;5092683;28;20082;-81
2022/09/27 04:51:24;;;;;;;11.88;6.85;;;;;;;;;;5089083;28;20020;-81
2022/09/27 04:53:50;;;;;;;12.35;7.53;;;;;;;;;;5067183;28;20069;-81
2022/09/27 04:56:16;;;;;;;10.95;7.50;;;;;;;;;;5068863;28;20032;-80
2022/09/27 04:58:42;;;;;;;13.13;7.70;;;;;;;;;;5089570;28;20059;-81
2022/09/27 05:01:08;;;;;;;10.23;6.93;;;;;;;;;;5095264;28;20027;-80
2022/09/27 05:03:34;;;;;;;10.50;6.78;;;;;;;;;;5090583;28;20028;-81
2022/09/27 05:06:01;;;;;;;11.00;6.80;;;;;;;;;;5096151;28;20024;-81
2022/09/27 05:08:28;;;;;;;11.27;7.50;;;;;;;;;;5085366;28;20180;-81
2022/09/27 05:10:54;;;;;;;10.95;6.30;;;;;;;;;;5090943;28;20047;-81
2022/09/27 05:13:21;;;;;;;10.02;6.55;;;;;;;;;;5091938;28;20024;-81
2022/09/27 05:15:47;;;;;;;10.90;6.95;;;;;;;;;;5095413;28;20035;-80
2022/09/27 05:18:13;;;;;;;11.52;7.53;;;;;;;;;;5073131;28;20480;-80
2022/09/27 05:20:39;;;;;;;13.93;7.35;;;;;;;;;;5092037;28;20020;-80
2022/09/27 05:23:06;;;;;;;10.43;7.50;;;;;;;;;;5093371;28;20046;-81
2022/09/27 05:25:32;;;;;;;11.10;7.05;;;;;;;;;;5086360;28;20075;-81
2022/09/27 05:27:58;;;;;;;10.57;7.00;;;;;;;;;;5092350;28;20044;-81
2022/09/27 05:30:25;;;;;;;15.70;8.75;;;;;;;;;;5074422;28;20024;-80
2022/09/27 05:32:52;;;;;;;14.00;9.00;;;;;;;;;;5086791;28;20022;-80
2022/09/27 05:35:18;;;;;;;15.70;10.43;;;;;;;;;;5066165;28;20024;-81
2022/09/27 05:37:51;;;;;;;16.50;11.00;;;;;;;;;;5079682;28;20086;-81
2022/09/27 05:40:17;;;;;;;12.70;8.65;;;;;;;;;;5094600;28;20082;-81
2022/09/27 05:42:43;;;;;;;10.30;7.00;;;;;;;;;;5091874;28;20020;-81
2022/09/27 05:45:09;;;;;;;11.18;7.60;;;;;;;;;;5101816;28;20016;-81
2022/09/27 05:47:35;;;;;;;10.80;7.10;;;;;;;;;;5099246;28;20028;-81
2022/09/27 05:50:02;;;;;;;11.98;7.43;;;;;;;;;;5101172;28;20073;-81
2022/09/27 05:52:28;;;;;;;11.93;7.65;;;;;;;;;;5098454;28;20070;-81
2022/09/27 05:54:54;;;;;;;13.02;9.02;;;;;;;;;;5098238;28;20455;-81
2022/09/27 05:57:20;;;;;;;11.80;7.38;;;;;;;;;;5099235;28;20031;-81
2022/09/27 05:59:47;;;;;;;11.30;6.40;;;;;;;;;;5099908;28;20028;-81
2022/09/27 06:02:13;;;;;;;12.23;7.65;;;;;;;;;;5099644;28;20035;-81
2022/09/27 06:04:39;;;;;;;11.25;7.32;;;;;;;;;;5077455;28;20048;-81
2022/09/27 06:07:05;;;;;;;10.43;7.25;;;;;;;;;;5097471;28;20020;-81
2022/09/27 06:09:31;;;;;;;13.18;7.90;;;;;;;;;;5099063;28;20028;-80
2022/09/27 06:11:57;;;;;;;11.20;7.25;;;;;;;;;;5097858;28;20088;-80
2022/09/27 06:14:25;;;;;;;13.68;8.00;;;;;;;;;;5097298;28;20056;-80
2022/09/27 06:16:53;;;;;;;16.13;7.50;;;;;;;;;;5074777;28;20062;-80
2022/09/27 06:19:20;;;;;;;13.98;7.97;;;;;;;;;;5098238;28;20395;-81
2022/09/27 06:21:49;;;;;;;12.38;8.10;;;;;;;;;;5100496;28;20048;-81
2022/09/27 06:24:15;;;;;;;12.43;8.00;;;;;;;;;;5081061;28;20024;-81
2022/09/27 06:26:41;;;;;;;12.43;7.88;;;;;;;;;;5085454;28;20035;-80
2022/09/27 06:29:08;;;;;;;13.63;7.97;;;;;;;;;;5098200;28;20016;-81
2022/09/27 06:31:34;;;;;;;13.10;8.15;;;;;;;;;;5097956;28;20024;-80
2022/09/27 06:34:00;;;;;;;13.43;7.95;;;;;;;;;;5093504;28;20400;-81
2022/09/27 06:36:26;;;;;;;12.20;7.57;;;;;;;;;;5096456;28;20036;-81
2022/09/27 06:38:52;;;;;;;11.30;7.55;;;;;;;;;;5076432;28;20024;-81
2022/09/27 06:41:18;;;;;;;13.15;8.10;;;;;;;;;;5098275;28;20024;-81
2022/09/27 06:43:44;;;;;;;11.63;6.85;;;;;;;;;;5097071;28;20027;-81
2022/09/27 06:46:10;;;;;;;14.95;8.02;;;;;;;;;;5098039;28;20024;-82
2022/09/27 06:48:37;;;;;;;14.13;8.15;;;;;;;;;;5097741;28;20508;-82
2022/09/27 06:51:03;;;;;;;13.27;8.40;;;;;;;;;;5098308;28;20023;-82
2022/09/27 06:53:29;;;;;;;13.32;8.55;;;;;;;;;;5089384;28;20023;-83
2022/09/27 06:55:59;;;;;;;12.25;8.32;;;;;;;;;;5093878;28;20032;-82
2022/09/27 07:01:10;;;;;;;13.20;8.30;;;;;;;;;;5099075;28;20446;-82
2022/09/27 07:03:40;;;;;;;13.77;8.55;;;;;;;;;;5099482;28;20075;-83
2022/09/27 07:06:06;;;;;;;15.73;9.05;;;;;;;;;;5095366;28;20418;-83
2022/09/27 07:08:34;;;;;;;16.27;8.82;;;;;;;;;;5096538;28;20503;-83
2022/09/27 07:11:05;;;;;;;13.55;8.85;;;;;;;;;;5094984;28;20036;-83
2022/09/27 07:13:33;;;;;;;13.95;8.85;;;;;;;;;;5090955;28;20078;-83
2022/09/27 07:16:00;;;;;;;13.50;8.52;;;;;;;;;;5078108;28;20108;-84
2022/09/27 07:18:26;;;;;;;13.65;8.77;;;;;;;;;;5077850;28;20024;-83
2022/09/27 07:20:52;;;;;;;12.63;8.20;;;;;;;;;;5077727;28;20028;-83
2022/09/27 07:23:18;;;;;;;13.15;8.43;;;;;;;;;;5078190;28;20484;-83
2022/09/27 07:25:44;;;;;;;14.75;9.32;;;;;;;;;;5098944;28;20028;-82
2022/09/27 07:28:15;;;;;;;13.05;8.57;;;;;;;;;;5112464;28;20038;-82
2022/09/27 07:30:41;;;;;;;15.23;9.02;;;;;;;;;;5109267;28;20053;-83
2022/09/27 07:33:08;;;;;;;12.55;8.32;;;;;;;;;;5068780;28;20032;-83
2022/09/27 07:35:38;;;;;;;14.00;9.02;;;;;;;;;;5096050;28;20036;-83
2022/09/27 07:38:07;;;;;;;13.10;8.73;;;;;;;;;;5094327;28;20580;-83
2022/09/27 07:40:33;;;;;;;12.90;9.02;;;;;;;;;;5092913;28;20028;-83
2022/09/27 07:42:59;;;;;;;13.10;8.73;;;;;;;;;;5094606;28;20035;-82
2022/09/27 07:45:26;;;;;;;11.77;8.25;;;;;;;;;;5097354;28;20361;-83
2022/09/27 07:47:52;;;;;;;11.68;7.90;;;;;;;;;;5076185;28;20472;-81
2022/09/27 07:50:18;;;;;;;12.43;8.18;;;;;;;;;;5097735;28;20032;-81
2022/09/27 07:52:46;;;;;;;12.48;7.90;;;;;;;;;;5077293;28;20104;-82
2022/09/27 07:55:13;;;;;;;13.65;8.52;;;;;;;;;;5096705;28;20077;-82
2022/09/27 07:57:40;;;;;;;14.73;8.88;;;;;;;;;;5072618;28;20029;-82
2022/09/27 08:00:07;;;;;;;12.75;8.50;;;;;;;;;;5080461;28;20257;-82
2022/09/27 08:02:34;;;;;;;12.70;8.23;;;;;;;;;;5097318;28;20615;-83
2022/09/27 08:05:00;;;;;;;15.80;9.32;;;;;;;;;;5077094;28;20025;-83
2022/09/27 08:07:27;;;;;;;13.57;9.68;;;;;;;;;;5097155;28;20032;-83
2022/09/27 08:09:53;;;;;;;14.63;9.90;;;;;;;;;;5097015;28;20085;-83
2022/09/27 08:12:22;;;;;;;13.90;9.90;;;;;;;;;;5096427;28;20028;-82
2022/09/27 08:14:48;;;;;;;13.05;8.18;;;;;;;;;;5096760;28;20560;-83
2022/09/27 08:17:15;;;;;;;14.95;9.43;;;;;;;;;;5096776;28;20032;-82
2022/09/27 08:19:43;;;;;;;15.88;9.63;;;;;;;;;;5097866;28;20067;-83
2022/09/27 08:22:10;;;;;;;13.98;8.63;;;;;;;;;;5097146;28;20059;-83
2022/09/27 08:24:36;;;;;;;18.77;10.57;;;;;;;;;;5097344;28;20039;-83
2022/09/27 08:27:04;;;;;;;15.82;9.65;;;;;;;;;;5098273;28;20016;-83
2022/09/27 08:29:30;;;;;;;12.80;9.15;;;;;;;;;;5097456;28;20016;-84
2022/09/27 08:31:56;;;;;;;11.75;8.48;;;;;;;;;;5076675;28;20039;-84
2022/09/27 08:34:23;;;;;;;9.73;6.65;;;;;;;;;;5096821;28;20016;-84
2022/09/27 08:36:49;;;;;;;9.02;6.05;;;;;;;;;;5098630;28;20036;-83
2022/09/27 08:39:15;;;;;;;8.40;4.85;;;;;;;;;;5097335;28;20077;-83
2022/09/27 08:41:54;;;;;;;7.90;4.78;;;;;;;;;;5098318;28;20035;-83
2022/09/27 08:44:26;;;;;;;9.77;5.55;;;;;;;;;;5098083;28;20028;-82
2022/09/27 08:47:14;;;;;;;9.90;5.95;;;;;;;;;;5099974;28;20016;-82
2022/09/27 08:49:41;;;;;;;11.60;6.25;;;;;;;;;;5098335;28;20036;-82
2022/09/27 08:52:09;;;;;;;10.98;7.10;;;;;;;;;;5099778;28;20017;-83
2022/09/27 08:54:37;;;;;;;9.43;5.55;;;;;;;;;;5083076;28;20534;-83
2022/09/27 08:57:11;;;;;;;10.73;8.38;;;;;;;;;;5082788;28;20020;-83
2022/09/27 08:59:48;;;;;;;9.77;6.55;;;;;;;;;;5100796;28;20507;-82
2022/09/27 09:02:17;;;;;;;9.68;6.22;;;;;;;;;;5082372;28;20024;-82
2022/09/27 09:04:45;;;;;;;11.23;7.07;;;;;;;;;;5079310;28;20020;-83
2022/09/27 09:07:20;;;;;;;9.65;5.95;;;;;;;;;;5100350;28;20115;-82
2022/09/27 09:10:05;;;;;;;9.60;6.43;;;;;;;;;;5100487;28;20020;-83
2022/09/27 09:12:46;;;;;;;10.93;7.28;;;;;;;;;;5078149;28;20020;-84
2022/09/27 09:15:12;;;;;;;10.57;6.45;;;;;;;;;;5080266;28;20021;-83
2022/09/27 09:17:41;;;;;;;10.13;6.10;;;;;;;;;;5100713;28;20024;-82
2022/09/27 09:20:16;;;;;;;9.18;5.82;;;;;;;;;;5073332;28;20083;-83
2022/09/27 09:22:54;;;;;;;10.82;6.85;;;;;;;;;;5096788;28;20048;-82
2022/09/27 09:25:38;;;;;;;10.70;6.82;;;;;;;;;;5099663;28;20077;-83
2022/09/27 09:28:04;;;;;;;9.00;5.97;;;;;;;;;;5100792;28;20020;-83
2022/09/27 09:30:31;;;;;;;8.65;5.43;;;;;;;;;;5100797;28;20039;-84
2022/09/27 09:32:57;;;;;;;9.57;6.03;;;;;;;;;;5079749;28;20373;-83
2022/09/27 09:35:27;;;;;;;10.57;6.05;;;;;;;;;;5100314;28;20035;-83
2022/09/27 09:37:57;;;;;;;9.15;5.38;;;;;;;;;;5099947;28;20388;-83
2022/09/27 09:40:23;;;;;;;8.38;5.88;;;;;;;;;;5099607;28;20031;-82
2022/09/27 09:42:57;;;;;;;7.80;5.10;;;;;;;;;;5078343;28;20028;-83
2022/09/27 09:45:31;;;;;;;7.13;4.28;;;;;;;;;;5091175;28;20028;-83
2022/09/27 09:48:14;;;;;;;7.60;4.28;;;;;;;;;;5099452;28;20024;-82
2022/09/27 09:50:43;;;;;;;7.15;4.35;;;;;;;;;;5099700;28;20545;-83
2022/09/27 09:53:17;;;;;;;5.90;3.60;;;;;;;;;;5099823;28;20069;-85
2022/09/27 09:55:45;;;;;;;6.65;2.95;;;;;;;;;;5077502;28;20036;-85
2022/09/27 09:58:20;;;;;;;5.22;2.90;;;;;;;;;;5080370;28;20078;-86
2022/09/27 10:00:47;;;;;;;6.47;2.80;;;;;;;;;;5098670;28;20503;-85
2022/09/27 10:03:13;;;;;;;5.47;2.90;;;;;;;;;;5098587;28;20029;-85
2022/09/27 10:05:42;;;;;;;6.47;3.50;;;;;;;;;;5094521;28;20032;-85
2022/09/27 10:08:12;;;;;;;5.43;2.90;;;;;;;;;;5097006;28;20016;-84
2022/09/27 10:10:39;;;;;;;6.15;2.80;;;;;;;;;;5099622;28;20028;-85
2022/09/27 10:13:10;;;;;;;7.10;3.58;;;;;;;;;;5096273;28;20025;-85
2022/09/27 10:15:36;;;;;;;6.13;3.42;;;;;;;;;;5092814;28;20102;-84
2022/09/27 10:18:03;;;;;;;7.22;3.75;;;;;;;;;;5093757;28;20031;-83
2022/09/27 10:20:32;;;;;;;6.95;4.13;;;;;;;;;;5097725;28;20028;-84
2022/09/27 10:23:13;;;;;;;6.32;3.45;;;;;;;;;;5096883;28;20068;-85
2022/09/27 10:25:51;;;;;;;9.55;5.25;;;;;;;;;;5078952;28;20119;-85
2022/09/27 10:28:31;;;;;;;8.02;5.05;;;;;;;;;;5076403;28;20395;-85
2022/09/27 10:30:59;;;;;;;7.68;4.50;;;;;;;;;;5085680;28;20031;-85
2022/09/27 10:33:25;;;;;;;8.65;4.80;;;;;;;;;;5075451;28;20067;-84
2022/09/27 10:35:52;;;;;;;7.63;4.32;;;;;;;;;;5095242;28;20020;-85
2022/09/27 10:38:19;;;;;;;7.57;4.10;;;;;;;;;;5100833;28;20026;-84
2022/09/27 10:40:45;;;;;;;6.60;3.95;;;;;;;;;;5079679;28;20028;-84
2022/09/27 10:43:25;;;;;;;7.38;4.07;;;;;;;;;;5093030;28;20004;-85
2022/09/27 10:45:58;;;;;;;8.32;3.97;;;;;;;;;;5080989;28;20255;-84
2022/09/27 10:48:25;;;;;;;5.80;3.45;;;;;;;;;;5085933;28;20032;-84
2022/09/27 10:50:59;;;;;;;6.28;3.67;;;;;;;;;;5081399;28;20039;-85
2022/09/27 10:53:26;;;;;;;6.90;4.00;;;;;;;;;;5080061;28;20016;-84
2022/09/27 10:55:54;;;;;;;6.63;3.72;;;;;;;;;;5080703;28;20092;-84
2022/09/27 10:58:24;;;;;;;8.35;4.20;;;;;;;;;;5080474;28;20024;-85
2022/09/27 11:00:55;;;;;;;6.03;3.80;;;;;;;;;;5081216;28;20028;-84
2022/09/27 11:03:21;;;;;;;5.90;3.58;;;;;;;;;;5082906;28;20035;-87
2022/09/27 11:05:47;;;;;;;5.50;3.22;;;;;;;;;;5081023;28;20029;-86
2022/09/27 11:08:23;;;;;;;6.15;3.58;;;;;;;;;;5100056;28;20031;-86
2022/09/27 11:11:02;;;;;;;5.90;3.20;;;;;;;;;;5100454;28;20463;-86
2022/09/27 11:13:33;;;;;;;5.45;2.80;;;;;;;;;;5103302;28;20024;-87
2022/09/27 11:16:14;;;;;;;5.63;3.10;;;;;;;;;;5082278;28;20024;-87
2022/09/27 11:18:55;;;;;;;5.97;2.72;;;;;;;;;;5090961;28;20111;-85
2022/09/27 11:21:40;;;;;;;4.60;2.30;;;;;;;;;;5091075;28;20040;-85
2022/09/27 11:24:19;;;;;;;5.30;2.85;;;;;;;;;;5103438;28;20435;-85
2022/09/27 11:26:51;;;;;;;5.40;2.70;;;;;;;;;;5101473;28;20032;-85
2022/09/27 11:29:21;;;;;;;4.93;2.80;;;;;;;;;;5103802;28;20036;-85
2022/09/27 11:31:54;;;;;;;5.43;2.58;;;;;;;;;;5079952;28;20096;-86
2022/09/27 11:34:20;;;;;;;4.90;2.67;;;;;;;;;;5068028;28;20029;-86
2022/09/27 11:36:46;;;;;;;4.72;2.45;;;;;;;;;;5059089;28;20020;-85
2022/09/27 11:39:16;;;;;;;5.32;2.80;;;;;;;;;;5081799;28;20067;-85
2022/09/27 11:41:47;;;;;;;4.90;2.30;;;;;;;;;;5100758;28;20369;-85
2022/09/27 11:44:17;;;;;;;5.05;2.17;;;;;;;;;;5099976;28;20016;-84
2022/09/27 11:46:48;;;;;;;4.80;2.40;;;;;;;;;;5099550;28;20020;-85
2022/09/27 11:49:32;;;;;;;4.25;2.00;;;;;;;;;;5098481;28;20036;-84
2022/09/27 11:52:07;;;;;;;5.80;2.70;;;;;;;;;;5077711;28;20025;-84
2022/09/27 11:54:43;;;;;;;5.40;2.35;;;;;;;;;;5076900;28;20039;-85
2022/09/27 11:57:17;;;;;;;5.78;2.40;;;;;;;;;;5096990;28;20035;-85
2022/09/27 12:00:04;;;;;;;4.40;2.10;;;;;;;;;;5091855;28;20127;-85
2022/09/27 12:02:39;;;;;;;5.55;2.55;;;;;;;;;;5081083;28;20032;-85
2022/09/27 12:05:30;;;;;;;4.55;1.90;;;;;;;;;;5110198;28;20112;-85
2022/09/27 12:08:02;;;;;;;5.00;2.08;;;;;;;;;;5068577;28;20028;-84
2022/09/27 12:10:28;;;;;;;5.75;2.33;;;;;;;;;;5075451;28;20020;-84
2022/09/27 12:12:56;;;;;;;5.28;2.30;;;;;;;;;;5085747;28;20020;-84
2022/09/27 12:15:29;;;;;;;4.72;2.00;;;;;;;;;;5084034;28;20032;-84
2022/09/27 12:17:55;;;;;;;;;;;;;;;;;;5071648;28;20032;-83
2022/09/27 12:20:30;;;;;;;4.82;1.73;;;;;;;;;;5093461;28;20360;-82
2022/09/27 12:23:04;;;;;;;5.05;2.22;;;;;;;;;;5103605;28;20460;-83
2022/09/27 12:25:31;;;;;;;4.25;1.83;;;;;;;;;;5070937;28;20486;-81
2022/09/27 12:28:07;;;;;;;5.68;2.60;;;;;;;;;;5090782;28;20016;-82
2022/09/27 12:30:34;;;;;;;5.03;2.38;;;;;;;;;;5096449;28;20016;-82
2022/09/27 12:33:05;;;;;;;4.63;1.70;;;;;;;;;;5097830;28;20028;-82
2022/09/27 12:35:34;;;;;;;3.35;1.50;;;;;;;;;;5075120;28;20526;-82
2022/09/27 12:38:33;;;;;;;5.18;1.88;;;;;;;;;;5093257;28;20488;-81
2022/09/27 12:41:20;;;;;;;3.90;2.00;;;;;;;;;;5010390;28;20042;-80
2022/09/27 12:43:48;;;;;;;4.30;1.75;;;;;;;;;;5009814;28;20117;-80
2022/09/27 12:46:21;;;;;;;3.95;1.88;;;;;;;;;;4994765;28;20088;-81
2022/09/27 12:49:05;;;;;;;4.95;1.98;;;;;;;;;;5019584;28;20022;-79
2022/09/27 12:51:39;;;;;;;5.18;2.15;;;;;;;;;;4993350;28;20041;-81
2022/09/27 12:54:37;;;;;;;4.20;2.03;;;;;;;;;;4993706;28;20098;-81
2022/09/27 12:57:07;;;;;;;3.85;1.80;;;;;;;;;;4949833;28;20039;-80
2022/09/27 12:59:33;;;;;;;3.65;1.60;;;;;;;;;;4963340;28;20039;-78
2022/09/27 13:02:11;;;;;;;3.95;1.80;;;;;;;;;;4956159;28;20035;-82
2022/09/27 13:04:38;;;;;;;4.07;1.92;;;;;;;;;;4956996;29;20459;-81
2022/09/27 13:07:06;;;;;;;4.13;1.75;;;;;;;;;;4955301;29;20624;-80
2022/09/27 13:09:49;;;;;;;4.35;2.05;;;;;;;;;;4953771;29;20130;-84
2022/09/27 13:12:18;;;;;;;4.70;2.30;;;;;;;;;;4953466;28;20054;-82
2022/09/27 13:14:57;;;;;;;3.60;1.60;;;;;;;;;;4955354;29;20054;-82
2022/09/27 13:17:33;;;;;;;3.70;1.92;;;;;;;;;;4977225;28;20045;-82
2022/09/27 13:20:19;;;;;;;4.13;1.90;;;;;;;;;;5012541;28;20061;-81
2022/09/27 13:22:45;;;;;;;4.18;2.00;;;;;;;;;;5002000;28;20054;-81
2022/09/27 13:25:42;;;;;;;5.78;1.80;;;;;;;;;;5014342;28;20527;-81
2022/09/27 13:28:26;;;;;;;4.40;1.70;;;;;;;;;;4963456;28;20090;-80
2022/09/27 13:30:53;;;;;;;5.65;1.90;;;;;;;;;;4995211;28;20034;-83
2022/09/27 13:33:20;;;;;;;4.78;1.90;;;;;;;;;;5060786;28;20091;-84
2022/09/27 13:36:05;;;;;;;4.10;1.90;;;;;;;;;;5085723;28;20035;-84
2022/09/27 13:38:31;;;;;;;6.20;1.88;;;;;;;;;;5099977;28;20032;-82
2022/09/27 13:41:13;;;;;;;3.92;1.80;;;;;;;;;;5100672;28;20016;-80
2022/09/27 13:44:04;;;;;;;4.15;1.70;;;;;;;;;;5101553;28;20020;-81
2022/09/27 13:46:31;;;;;;;5.60;1.73;;;;;;;;;;5100113;28;20044;-83
2022/09/27 13:48:59;;;;;;;3.97;1.92;;;;;;;;;;5100526;28;20028;-82
2022/09/27 13:51:27;;;;;;;4.10;2.30;;;;;;;;;;5097936;28;20024;-82
2022/09/27 13:53:57;;;;;;;4.25;1.90;;;;;;;;;;5085731;28;20024;-82
2022/09/27 13:56:45;;;;;;;4.47;1.95;;;;;;;;;;5071291;28;20044;-82
2022/09/27 13:59:24;;;;;;;4.45;1.90;;;;;;;;;;5097347;28;20036;-81
2022/09/27 14:01:57;;;;;;;3.90;1.70;;;;;;;;;;5094476;28;20012;-80
2022/09/27 14:04:25;;;;;;;5.47;2.22;;;;;;;;;;5094919;28;20028;-82
2022/09/27 14:06:56;;;;;;;4.00;1.98;;;;;;;;;;5100632;28;20020;-82
2022/09/27 14:09:24;;;;;;;4.88;1.60;;;;;;;;;;5100556;28;20550;-81
2022/09/27 14:12:11;;;;;;;4.47;1.80;;;;;;;;;;5100188;28;20047;-82
2022/09/27 14:14:38;;;;;;;3.63;1.30;;;;;;;;;;5096286;28;20031;-83
2022/09/27 14:17:09;;;;;;;4.93;1.58;;;;;;;;;;5098654;28;20088;-82
2022/09/27 14:19:38;;;;;;;4.18;1.77;;;;;;;;;;5099363;28;20166;-81
2022/09/27 14:22:36;;;;;;;5.43;1.80;;;;;;;;;;5099051;28;20044;-82
2022/09/27 14:25:03;;;;;;;3.53;1.52;;;;;;;;;;4997368;28;20039;-81
2022/09/27 14:27:34;;;;;;;4.28;2.30;;;;;;;;;;4997206;28;20034;-81
2022/09/27 14:30:20;;;;;;;3.33;1.67;;;;;;;;;;4996421;28;20026;-82
2022/09/27 14:32:50;;;;;;;3.63;1.50;;;;;;;;;;4978419;28;20622;-81
2022/09/27 14:38:05;;;;;;;3.03;1.20;;;;;;;;;;4978642;28;20042;-82
2022/09/27 14:40:35;;;;;;;3.00;1.40;;;;;;;;;;4980463;28;20031;-81
2022/09/27 14:43:02;;;;;;;3.22;1.35;;;;;;;;;;4996959;28;20564;-81
2022/09/27 14:45:51;;;;;;;2.88;1.23;;;;;;;;;;4996602;28;20027;-81
2022/09/27 14:48:27;;;;;;;3.38;1.40;;;;;;;;;;4990760;28;20045;-82
2022/09/27 14:51:00;;;;;;;3.35;1.20;;;;;;;;;;4997239;28;20033;-84
2022/09/27 14:53:31;;;;;;;3.45;1.30;;;;;;;;;;4997762;28;20041;-80
2022/09/27 14:55:58;;;;;;;3.17;1.03;;;;;;;;;;5017125;28;20034;-82
2022/09/27 14:58:25;;;;;;;2.75;0.90;;;;;;;;;;5016923;28;20443;-81
2022/09/27 15:00:52;;;;;;;4.07;1.00;;;;;;;;;;5052820;28;20036;-82